Royal Oak, Michigan
Current Conditions -  °F | °C
As of 1:35 AM on Monday 26 Jan 2015 (Local Time) from KVLL Reporting Station
Clear Clear  
Wind Chill:   Ceiling: Unl
Heat Index: 18°   Visibility: 10mi
Dew Point:   Wind: 8mph
Humidity: 67%   Direction: 40°NE
Pressure: 29.99"   Gusts: NA
Location:  42.49°N, 83.14°W
Report Text: KVLL 260635Z AUTO 04007KT 10SM CLR M08/M13 A2999 RMK AO2 T10801132
Loading
Personal Weather Stations






























Interactive Weather Map New forecast layout! Learn more

10-Day Weather Forecast

Advertisements
Track Severe Weather on mobile